Deering, Illinois
Current Conditions -  °F | °C
As of 12:15 AM on Monday 26 Jan 2015 (Local Time) from KMWA Reporting Station
Overcast Overcast  
Wind Chill: 26°   Ceiling: 1100
Heat Index: 34°   Visibility: 10mi
Dew Point: 30°   Wind: 10mph
Humidity: 87%   Direction: 330°NNW
Pressure: 29.95"   Gusts: 22mph
Location:  37.9074°N, 88.9501°W
Report Text: KMWA 260615Z AUTO 33009G19KT 300V360 10SM OVC011 01/M01 A2995 RMK AO2
Loading
Personal Weather Stations






























Interactive Weather Map New forecast layout! Learn more

10-Day Weather Forecast

Advertisements
Track Severe Weather on mobile